createdAt,value
2018-12-19T00:00:55.049Z,21.87
2018-12-19T00:03:22.524Z,28.00
2018-12-19T00:05:49.995Z,24.20
2018-12-19T00:08:17.484Z,25.50
2018-12-19T00:10:44.967Z,27.63
2018-12-19T00:13:14.472Z,27.27
2018-12-19T00:15:41.934Z,24.23
2018-12-19T00:18:09.540Z,30.57
2018-12-19T00:20:37.050Z,24.50
2018-12-19T00:23:04.539Z,25.97
2018-12-19T00:25:32.035Z,28.40
2018-12-19T00:27:59.627Z,26.47
2018-12-19T00:30:27.154Z,25.80
2018-12-19T00:32:54.726Z,27.93
2018-12-19T00:35:22.211Z,27.23
2018-12-19T00:37:49.694Z,25.70
2018-12-19T00:40:17.175Z,27.10
2018-12-19T00:42:44.652Z,26.30
2018-12-19T00:45:12.143Z,28.93
2018-12-19T00:47:39.617Z,28.40
2018-12-19T00:50:07.097Z,30.47
2018-12-19T00:52:34.706Z,28.57
2018-12-19T00:55:02.213Z,29.07
2018-12-19T00:57:29.718Z,28.80
2018-12-19T00:59:58.102Z,27.77
2018-12-19T01:02:25.584Z,27.20
2018-12-19T01:04:53.068Z,28.30
2018-12-19T01:07:20.636Z,27.00
2018-12-19T01:09:48.295Z,27.40
2018-12-19T01:12:15.762Z,29.37
2018-12-19T01:14:43.243Z,28.93
2018-12-19T01:17:10.737Z,28.30
2018-12-19T01:19:38.227Z,26.27
2018-12-19T01:22:05.711Z,30.80
2018-12-19T01:24:33.209Z,31.77
2018-12-19T01:27:00.678Z,26.23
2018-12-19T01:29:28.166Z,27.17
2018-12-19T01:31:55.652Z,31.03
2018-12-19T01:34:23.138Z,31.23
2018-12-19T01:36:50.622Z,27.37
2018-12-19T01:39:22.448Z,25.73
2018-12-19T01:41:47.591Z,28.43
2018-12-19T01:44:15.087Z,27.73
2018-12-19T01:46:42.551Z,27.77
2018-12-19T01:49:10.174Z,29.87
2018-12-19T01:51:38.074Z,26.73
2018-12-19T01:54:06.201Z,27.00
2018-12-19T01:56:33.703Z,31.20
2018-12-19T01:59:01.174Z,26.63
2018-12-19T02:01:28.706Z,29.10
2018-12-19T02:03:56.183Z,27.47
2018-12-19T02:06:23.688Z,29.73
2018-12-19T02:08:51.170Z,31.40
2018-12-19T02:11:18.668Z,26.33
2018-12-19T02:13:46.205Z,27.47
2018-12-19T02:16:13.685Z,28.30
2018-12-19T02:18:41.145Z,30.13
2018-12-19T02:21:08.642Z,32.33
2018-12-19T02:23:36.115Z,27.20
2018-12-19T02:26:03.648Z,28.87
2018-12-19T02:28:31.127Z,26.93
2018-12-19T02:30:58.637Z,27.87
2018-12-19T02:33:26.726Z,26.10
2018-12-19T02:35:54.215Z,31.93
2018-12-19T02:38:21.689Z,28.50
2018-12-19T02:40:49.229Z,28.70
2018-12-19T02:43:17.099Z,28.90
2018-12-19T02:45:44.567Z,30.67
2018-12-19T02:48:12.349Z,28.70
2018-12-19T02:50:39.831Z,33.17
2018-12-19T02:53:07.332Z,27.10
2018-12-19T02:55:35.530Z,30.80
2018-12-19T02:58:03.190Z,33.53
2018-12-19T03:00:30.647Z,28.30
2018-12-19T03:02:58.165Z,32.97
2018-12-19T03:05:25.662Z,27.30
2018-12-19T03:07:53.331Z,30.27
2018-12-19T03:10:21.360Z,30.37
2018-12-19T03:12:48.850Z,26.60
2018-12-19T03:15:16.836Z,30.03
2018-12-19T03:17:44.337Z,29.73
2018-12-19T03:20:11.925Z,35.13
2018-12-19T03:22:39.398Z,31.17
2018-12-19T03:25:06.870Z,32.53
2018-12-19T03:27:34.366Z,30.73
2018-12-19T03:30:01.857Z,32.10
2018-12-19T03:32:29.753Z,36.20
2018-12-19T03:34:57.257Z,32.03
2018-12-19T03:37:25.062Z,28.23
2018-12-19T03:39:52.532Z,31.27
2018-12-19T03:42:20.029Z,28.67
2018-12-19T03:44:47.516Z,33.17
2018-12-19T03:47:15.002Z,30.50
2018-12-19T03:49:42.919Z,33.13
2018-12-19T03:52:10.521Z,30.50
2018-12-19T03:54:38.057Z,27.27
2018-12-19T03:57:06.346Z,26.93
2018-12-19T03:59:33.820Z,27.80
2018-12-19T04:02:01.300Z,29.17
2018-12-19T04:04:29.246Z,27.47
2018-12-19T04:06:56.709Z,26.63
2018-12-19T04:09:24.259Z,25.90
2018-12-19T04:11:52.102Z,27.73
2018-12-19T04:14:19.679Z,25.23
2018-12-19T04:16:47.277Z,26.00
2018-12-19T04:19:14.772Z,27.57
2018-12-19T04:21:42.235Z,23.53
2018-12-19T04:24:09.718Z,26.73
2018-12-19T04:26:37.195Z,28.37
2018-12-19T04:29:04.725Z,28.53
2018-12-19T04:31:32.172Z,28.27
2018-12-19T04:34:00.459Z,28.33
2018-12-19T04:36:28.026Z,28.60
2018-12-19T04:38:55.498Z,29.23
2018-12-19T04:41:22.987Z,32.20
2018-12-19T04:43:50.593Z,27.83
2018-12-19T04:46:18.047Z,23.77
2018-12-19T04:48:45.510Z,32.50
2018-12-19T04:51:12.971Z,29.57
2018-12-19T04:53:40.449Z,29.17
2018-12-19T04:56:07.919Z,29.13
2018-12-19T04:58:35.410Z,27.23
2018-12-19T05:01:02.875Z,29.93
2018-12-19T05:03:30.420Z,26.63
2018-12-19T05:05:57.872Z,31.00
2018-12-19T05:08:25.456Z,24.53
2018-12-19T05:10:52.930Z,31.00
2018-12-19T05:13:20.469Z,28.37
2018-12-19T05:15:47.945Z,28.70
2018-12-19T05:18:15.407Z,29.60
2018-12-19T05:20:42.937Z,31.87
2018-12-19T05:23:10.495Z,28.40
2018-12-19T05:25:37.980Z,29.10
2018-12-19T05:28:05.649Z,29.20
2018-12-19T05:30:33.133Z,29.70
2018-12-19T05:33:00.656Z,28.23
2018-12-19T05:35:28.148Z,28.33
2018-12-19T05:37:56.380Z,29.03
2018-12-19T05:40:23.949Z,30.60
2018-12-19T05:42:51.423Z,27.50
2018-12-19T05:45:19.179Z,28.10
2018-12-19T05:47:47.101Z,27.90
2018-12-19T05:50:15.939Z,30.27
2018-12-19T05:52:43.480Z,27.53
2018-12-19T05:55:11.123Z,30.20
2018-12-19T05:57:38.750Z,27.73
2018-12-19T06:00:07.707Z,28.87
2018-12-19T06:02:35.211Z,27.47
2018-12-19T06:05:03.077Z,26.67
2018-12-19T06:07:30.569Z,26.43
2018-12-19T06:09:58.049Z,24.87
2018-12-19T06:12:25.574Z,26.07
2018-12-19T06:14:53.079Z,25.70
2018-12-19T06:17:21.328Z,27.97
2018-12-19T06:19:48.795Z,23.70
2018-12-19T06:22:16.666Z,25.07
2018-12-19T06:24:44.154Z,24.17
2018-12-19T06:27:11.639Z,27.97
2018-12-19T06:29:40.026Z,24.27
2018-12-19T06:32:07.525Z,27.87
2018-12-19T06:34:35.186Z,29.17
2018-12-19T06:37:02.703Z,25.70
2018-12-19T06:39:30.998Z,24.90
2018-12-19T06:41:58.491Z,23.53
2018-12-19T06:44:25.949Z,24.70
2018-12-19T06:46:53.451Z,27.37
2018-12-19T06:49:21.892Z,29.63
2018-12-19T06:51:49.376Z,22.27
2018-12-19T06:54:16.871Z,24.80
2018-12-19T06:56:44.358Z,28.37
2018-12-19T06:59:11.833Z,25.30
2018-12-19T07:01:39.317Z,23.53
2018-12-19T07:04:06.787Z,25.53
2018-12-19T07:06:34.326Z,23.37
2018-12-19T07:09:02.169Z,22.03
2018-12-19T07:11:29.672Z,25.47
2018-12-19T07:13:57.132Z,27.17
2018-12-19T07:16:25.293Z,26.00
2018-12-19T07:18:52.865Z,23.97
2018-12-19T07:21:20.342Z,25.60
2018-12-19T07:23:47.871Z,26.40
2018-12-19T07:26:15.357Z,26.40
2018-12-19T07:28:42.875Z,22.43
2018-12-19T07:31:10.945Z,24.33
2018-12-19T07:33:38.420Z,23.30
2018-12-19T07:36:06.086Z,23.63
2018-12-19T07:38:34.080Z,24.13
2018-12-19T07:41:01.603Z,22.67
2018-12-19T07:43:29.066Z,25.30
2018-12-19T07:45:56.945Z,23.57
2018-12-19T07:48:24.674Z,24.70
2018-12-19T07:50:52.155Z,22.43
2018-12-19T07:53:19.715Z,23.57
2018-12-19T07:55:47.383Z,22.63
2018-12-19T07:58:14.910Z,24.40
2018-12-19T08:00:43.055Z,24.10
2018-12-19T08:03:10.677Z,25.00
2018-12-19T08:05:38.170Z,22.60
2018-12-19T08:08:05.668Z,23.70
2018-12-19T08:10:33.142Z,21.13
2018-12-19T08:13:00.642Z,24.77
2018-12-19T08:15:28.139Z,21.83
2018-12-19T08:17:55.840Z,24.07
2018-12-19T08:20:23.354Z,23.90
2018-12-19T08:22:50.857Z,20.43
2018-12-19T08:25:18.333Z,24.50
2018-12-19T08:27:45.918Z,25.83
2018-12-19T08:30:13.389Z,20.77
2018-12-19T08:32:40.904Z,25.47
2018-12-19T08:35:08.511Z,22.40
2018-12-19T08:37:36.037Z,25.40
2018-12-19T08:40:04.802Z,23.97
2018-12-19T08:42:32.312Z,29.07
2018-12-19T08:44:59.777Z,25.57
2018-12-19T08:47:27.360Z,25.00
2018-12-19T08:49:54.809Z,23.67
2018-12-19T08:52:22.311Z,27.50
2018-12-19T08:54:49.812Z,25.83
2018-12-19T08:57:17.322Z,23.53
2018-12-19T08:59:44.794Z,25.73
2018-12-19T09:02:12.336Z,24.33
2018-12-19T09:04:39.805Z,23.87
2018-12-19T09:07:07.443Z,24.37
2018-12-19T09:09:34.915Z,22.97
2018-12-19T09:12:02.447Z,23.87
2018-12-19T09:14:29.929Z,20.90
2018-12-19T09:16:57.399Z,23.93
2018-12-19T09:19:24.865Z,25.80
2018-12-19T09:21:52.343Z,21.17
2018-12-19T09:24:19.831Z,22.73
2018-12-19T09:26:47.315Z,23.97
2018-12-19T09:29:14.865Z,23.90
2018-12-19T09:31:45.534Z,21.73
2018-12-19T09:34:13.810Z,18.97
2018-12-19T09:36:41.373Z,23.07
2018-12-19T09:39:08.845Z,23.90
2018-12-19T09:41:36.323Z,28.47
2018-12-19T09:44:03.819Z,25.87
2018-12-19T09:46:31.300Z,21.20
2018-12-19T09:48:58.770Z,22.10
2018-12-19T09:51:26.251Z,22.10
2018-12-19T09:53:53.736Z,20.60
2018-12-19T09:56:21.199Z,22.10
2018-12-19T09:58:48.680Z,21.03
2018-12-19T10:01:16.146Z,21.57
2018-12-19T10:03:43.625Z,18.47
2018-12-19T10:06:11.088Z,18.40
2018-12-19T10:08:38.576Z,21.60
2018-12-19T10:11:06.041Z,17.33
2018-12-19T10:13:33.556Z,24.80
2018-12-19T10:16:01.134Z,21.17
2018-12-19T10:18:28.607Z,20.87
2018-12-19T10:20:56.087Z,19.40
2018-12-19T10:23:23.561Z,25.30
2018-12-19T10:28:53.917Z,17.43
2018-12-19T10:31:21.399Z,21.97
2018-12-19T10:33:48.871Z,22.57
2018-12-19T10:36:18.343Z,17.73
2018-12-19T10:38:46.434Z,19.40
2018-12-19T10:41:14.074Z,21.20
2018-12-19T10:43:41.811Z,21.27
2018-12-19T10:46:09.336Z,22.90
2018-12-19T10:48:36.807Z,20.93
2018-12-19T10:51:04.289Z,22.93
2018-12-19T10:53:31.847Z,21.27
2018-12-19T10:55:59.332Z,22.33
2018-12-19T10:58:26.782Z,19.13
2018-12-19T11:00:59.913Z,24.97
2018-12-19T11:03:27.375Z,23.10
2018-12-19T11:05:54.856Z,19.83
2018-12-19T11:08:22.323Z,26.47
2018-12-19T11:10:49.850Z,21.43
2018-12-19T11:13:17.325Z,20.50
2018-12-19T11:15:44.816Z,18.27
2018-12-19T11:18:12.288Z,22.03
2018-12-19T11:20:39.788Z,23.37
2018-12-19T11:23:07.259Z,22.73
2018-12-19T11:25:34.766Z,23.53
2018-12-19T11:28:02.232Z,20.87
2018-12-19T11:30:29.716Z,24.20
2018-12-19T11:32:57.205Z,20.83
2018-12-19T11:35:24.752Z,21.17
2018-12-19T11:37:52.347Z,22.33
2018-12-19T11:40:19.816Z,22.20
2018-12-19T11:42:47.287Z,19.27
2018-12-19T11:45:14.804Z,20.87
2018-12-19T11:47:42.291Z,26.33
2018-12-19T11:50:09.765Z,20.40
2018-12-19T11:52:37.258Z,28.20
2018-12-19T11:55:05.083Z,22.63
2018-12-19T11:57:32.692Z,49.20
2018-12-19T12:00:00.168Z,21.53
2018-12-19T12:02:27.653Z,21.07
2018-12-19T12:04:55.138Z,24.93
2018-12-19T12:07:22.615Z,21.90
2018-12-19T12:09:50.070Z,24.03
2018-12-19T12:12:17.551Z,21.10
2018-12-19T12:14:45.022Z,23.77
2018-12-19T12:17:12.514Z,20.07
2018-12-19T12:19:40.006Z,21.80
2018-12-19T12:22:07.505Z,21.57
2018-12-19T12:24:34.996Z,23.73
2018-12-19T12:27:02.483Z,19.97
2018-12-19T12:29:29.948Z,23.47
2018-12-19T12:31:57.433Z,23.80
2018-12-19T12:34:24.983Z,21.70
2018-12-19T12:36:52.821Z,22.37
2018-12-19T12:39:20.364Z,21.90
2018-12-19T12:41:52.342Z,22.13
2018-12-19T12:44:17.367Z,20.77
2018-12-19T12:46:44.937Z,27.80
2018-12-19T12:49:12.434Z,29.37
2018-12-19T12:51:39.889Z,24.37
2018-12-19T12:54:07.378Z,23.80
2018-12-19T12:56:34.830Z,22.80
2018-12-19T12:59:02.311Z,22.70
2018-12-19T13:01:29.777Z,22.53
2018-12-19T13:03:57.263Z,21.63
2018-12-19T13:06:24.780Z,22.47
2018-12-19T13:08:52.272Z,23.53
2018-12-19T13:11:19.743Z,24.40
2018-12-19T13:13:47.243Z,22.40
2018-12-19T13:16:14.787Z,25.57
2018-12-19T13:18:42.259Z,22.80
2018-12-19T13:21:09.738Z,26.57
2018-12-19T13:23:37.229Z,23.70
2018-12-19T13:26:04.690Z,20.80
2018-12-19T13:28:32.184Z,22.10
2018-12-19T13:30:59.649Z,24.43
2018-12-19T13:33:27.117Z,23.17
2018-12-19T13:35:54.591Z,22.77
2018-12-19T13:38:22.087Z,23.50
2018-12-19T13:40:49.543Z,23.13
2018-12-19T13:43:17.013Z,24.67
2018-12-19T13:45:44.476Z,23.80
2018-12-19T13:48:11.977Z,24.53
2018-12-19T13:50:39.438Z,22.47
2018-12-19T13:53:06.889Z,22.73
2018-12-19T13:55:34.372Z,22.67
2018-12-19T13:58:07.020Z,21.13
2018-12-19T14:00:32.022Z,24.87
2018-12-19T14:02:59.565Z,25.00
2018-12-19T14:05:27.123Z,21.40
2018-12-19T14:07:54.683Z,23.77
2018-12-19T14:10:22.218Z,25.07
2018-12-19T14:12:49.695Z,30.10
2018-12-19T14:15:17.186Z,20.90
2018-12-19T14:17:44.677Z,27.73
2018-12-19T14:20:12.158Z,26.67
2018-12-19T14:22:39.734Z,24.10
2018-12-19T14:25:07.290Z,20.10
2018-12-19T14:27:34.745Z,26.83
2018-12-19T14:30:02.439Z,22.07
2018-12-19T14:32:29.945Z,22.77
2018-12-19T14:34:57.511Z,26.13
2018-12-19T14:37:25.056Z,23.80
2018-12-19T14:39:52.541Z,23.53
2018-12-19T14:42:20.005Z,25.50
2018-12-19T14:44:47.534Z,22.30
2018-12-19T14:47:14.989Z,22.57
2018-12-19T14:49:42.551Z,23.43
2018-12-19T14:52:10.198Z,23.97
2018-12-19T14:54:37.673Z,24.33
2018-12-19T14:57:05.939Z,22.63
2018-12-19T14:59:33.562Z,23.40
2018-12-19T15:02:01.596Z,23.73
2018-12-19T15:04:29.051Z,24.43
2018-12-19T15:06:56.544Z,21.40
2018-12-19T15:09:24.009Z,27.23
2018-12-19T15:11:51.565Z,25.80
2018-12-19T15:14:19.033Z,28.20
2018-12-19T15:16:46.648Z,25.70
2018-12-19T15:19:14.125Z,25.23
2018-12-19T15:21:41.620Z,25.63
2018-12-19T15:24:09.090Z,24.77
2018-12-19T15:26:36.668Z,26.70
2018-12-19T15:29:04.143Z,26.60
2018-12-19T15:31:31.621Z,26.40
2018-12-19T15:33:59.094Z,27.07
2018-12-19T15:36:26.928Z,30.20
2018-12-19T15:38:54.375Z,28.13
2018-12-19T15:41:21.909Z,22.90
2018-12-19T15:43:50.086Z,25.93
2018-12-19T15:46:17.635Z,27.40
2018-12-19T15:48:45.818Z,27.53
2018-12-19T15:51:13.601Z,29.07
2018-12-19T15:53:41.546Z,25.73
2018-12-19T15:56:09.019Z,23.37
2018-12-19T15:58:36.597Z,25.77
2018-12-19T16:01:04.155Z,27.63
2018-12-19T16:03:31.968Z,26.33
2018-12-19T16:05:59.459Z,25.83
2018-12-19T16:08:27.634Z,27.77
2018-12-19T16:10:55.392Z,26.30
2018-12-19T16:13:22.967Z,26.60
2018-12-19T16:15:50.460Z,29.37
2018-12-19T16:18:17.966Z,24.40
2018-12-19T16:20:45.424Z,25.03
2018-12-19T16:23:13.005Z,23.20
2018-12-19T16:25:40.559Z,25.83
2018-12-19T16:28:08.046Z,23.57
2018-12-19T16:30:35.496Z,26.50
2018-12-19T16:33:03.040Z,29.67
2018-12-19T16:35:30.751Z,23.13
2018-12-19T16:37:58.243Z,24.80
2018-12-19T16:40:25.707Z,25.33
2018-12-19T16:42:53.223Z,25.80
2018-12-19T16:45:20.677Z,25.47
2018-12-19T16:47:48.175Z,24.70
2018-12-19T16:50:15.646Z,24.40
2018-12-19T16:52:43.191Z,28.27
2018-12-19T16:55:10.657Z,26.23
2018-12-19T16:57:38.221Z,27.13
2018-12-19T17:00:07.483Z,24.20
2018-12-19T17:02:35.076Z,24.00
2018-12-19T17:05:02.540Z,26.03
2018-12-19T17:07:30.029Z,26.93
2018-12-19T17:09:57.481Z,24.43
2018-12-19T17:12:24.972Z,25.40
2018-12-19T17:14:52.430Z,25.17
2018-12-19T17:17:19.920Z,26.07
2018-12-19T17:19:47.390Z,29.50
2018-12-19T17:22:14.937Z,26.50
2018-12-19T17:24:42.413Z,26.53
2018-12-19T17:27:09.893Z,24.57
2018-12-19T17:29:37.344Z,26.07
2018-12-19T17:32:04.881Z,22.80
2018-12-19T17:34:32.424Z,27.50
2018-12-19T17:36:59.893Z,26.10
2018-12-19T17:39:27.415Z,28.20
2018-12-19T17:41:54.879Z,25.43
2018-12-19T17:44:22.361Z,25.17
2018-12-19T17:46:49.832Z,26.00
2018-12-19T17:49:17.323Z,25.30
2018-12-19T17:51:44.936Z,28.67
2018-12-19T17:54:13.013Z,26.40
2018-12-19T17:56:40.502Z,32.67
2018-12-19T17:59:07.979Z,27.57
2018-12-19T18:01:35.715Z,28.87
2018-12-19T18:04:03.311Z,32.40
2018-12-19T18:06:30.800Z,26.77
2018-12-19T18:08:58.326Z,25.43
2018-12-19T18:11:25.841Z,28.20
2018-12-19T18:13:53.315Z,33.40
2018-12-19T18:16:20.786Z,28.20
2018-12-19T18:18:48.459Z,24.87
2018-12-19T18:21:15.918Z,26.83
2018-12-19T18:23:43.423Z,23.87
2018-12-19T18:26:10.891Z,25.70
2018-12-19T18:28:38.484Z,26.30
2018-12-19T18:31:05.989Z,27.20
2018-12-19T18:33:33.539Z,28.13
2018-12-19T18:36:01.026Z,28.40
2018-12-19T18:38:28.535Z,30.37
2018-12-19T18:40:56.123Z,33.70
2018-12-19T18:43:23.592Z,29.10
2018-12-19T18:45:51.096Z,30.10
2018-12-19T18:48:18.655Z,23.63
2018-12-19T18:50:46.144Z,24.93
2018-12-19T18:53:13.619Z,29.97
2018-12-19T18:55:41.144Z,30.17
2018-12-19T18:58:08.615Z,26.80
2018-12-19T19:00:36.135Z,30.30
2018-12-19T19:03:03.821Z,27.10
2018-12-19T19:05:31.362Z,28.83
2018-12-19T19:07:58.830Z,26.00
2018-12-19T19:10:26.312Z,28.53
2018-12-19T19:12:53.776Z,29.93
2018-12-19T19:15:21.321Z,27.63
2018-12-19T19:17:48.782Z,34.10
2018-12-19T19:20:16.265Z,31.67
2018-12-19T19:22:43.795Z,32.03
2018-12-19T19:25:11.291Z,30.27
2018-12-19T19:27:38.754Z,33.67
2018-12-19T19:30:07.976Z,38.37
2018-12-19T19:32:35.447Z,40.40
2018-12-19T19:35:03.317Z,35.77
2018-12-19T19:37:31.610Z,31.27
2018-12-19T19:39:59.091Z,30.00
2018-12-19T19:42:26.555Z,30.03
2018-12-19T19:44:54.028Z,27.43
2018-12-19T19:47:21.509Z,29.80
2018-12-19T19:49:49.046Z,31.80
2018-12-19T19:52:16.516Z,36.00
2018-12-19T19:54:43.998Z,36.03
2018-12-19T19:57:11.576Z,36.57
2018-12-19T19:59:39.021Z,40.77
2018-12-19T20:02:06.535Z,34.00
2018-12-19T20:04:34.005Z,33.53
2018-12-19T20:07:01.490Z,33.30
2018-12-19T20:09:28.956Z,33.23
2018-12-19T20:11:56.432Z,30.80
2018-12-19T20:14:23.926Z,31.73
2018-12-19T20:16:57.109Z,33.07
2018-12-19T20:19:24.680Z,35.03
2018-12-19T20:21:52.325Z,32.20
2018-12-19T20:24:19.821Z,34.33
2018-12-19T20:26:47.344Z,36.50
2018-12-19T20:29:14.872Z,34.53
2018-12-19T20:31:42.428Z,31.17
2018-12-19T20:34:09.989Z,30.27
2018-12-19T20:36:37.481Z,33.63
2018-12-19T20:39:06.481Z,35.50
2018-12-19T20:41:34.198Z,33.27
2018-12-19T20:44:01.681Z,40.10
2018-12-19T20:46:29.214Z,33.43
2018-12-19T20:48:56.707Z,40.83
2018-12-19T20:51:24.184Z,30.33
2018-12-19T20:53:51.687Z,31.37
2018-12-19T20:56:19.268Z,34.43
2018-12-19T20:58:46.887Z,31.83
2018-12-19T21:01:14.478Z,26.87
2018-12-19T21:03:41.962Z,32.23
2018-12-19T21:06:09.462Z,29.70
2018-12-19T21:08:36.991Z,34.90
2018-12-19T21:11:04.473Z,36.17
2018-12-19T21:13:31.954Z,33.10
2018-12-19T21:15:59.892Z,31.37
2018-12-19T21:21:33.417Z,31.77
2018-12-19T21:24:00.906Z,32.40
2018-12-19T21:26:28.411Z,36.40
2018-12-19T21:28:56.879Z,32.60
2018-12-19T21:31:24.380Z,35.47
2018-12-19T21:33:51.874Z,35.10
2018-12-19T21:36:19.393Z,34.93
2018-12-19T21:38:47.070Z,31.53
2018-12-19T21:41:16.403Z,33.27
2018-12-19T21:43:43.911Z,36.10
2018-12-19T21:46:11.476Z,36.97
2018-12-19T21:48:39.669Z,35.83
2018-12-19T21:51:07.211Z,37.30
2018-12-19T21:53:34.794Z,36.97
2018-12-19T21:56:02.379Z,36.53
2018-12-19T21:58:29.945Z,34.77
2018-12-19T22:00:57.534Z,41.27
2018-12-19T22:03:25.058Z,34.23
2018-12-19T22:05:52.772Z,37.07
2018-12-19T22:08:20.351Z,32.50
2018-12-19T22:10:47.903Z,32.50
2018-12-19T22:13:15.395Z,28.43
2018-12-19T22:15:44.160Z,32.40
2018-12-19T22:18:22.003Z,32.07
2018-12-19T22:20:51.501Z,34.90
2018-12-19T22:23:18.984Z,33.97
2018-12-19T22:25:50.456Z,38.40
2018-12-19T22:28:17.945Z,33.80
2018-12-19T22:30:45.478Z,32.27
2018-12-19T22:33:13.236Z,38.30
2018-12-19T22:35:40.906Z,36.73
2018-12-19T22:38:08.391Z,34.00
2018-12-19T22:40:36.045Z,37.07
2018-12-19T22:43:03.649Z,37.73
2018-12-19T22:45:31.225Z,35.63
2018-12-19T22:47:58.885Z,39.07
2018-12-19T22:50:26.593Z,39.80
2018-12-19T22:52:54.378Z,36.53
2018-12-19T22:55:21.931Z,40.37
2018-12-19T22:57:49.453Z,36.70
2018-12-19T23:00:17.069Z,39.53
2018-12-19T23:02:50.239Z,37.33
2018-12-19T23:05:19.816Z,34.40
2018-12-19T23:07:48.137Z,35.93
2018-12-19T23:10:15.746Z,34.37
2018-12-19T23:12:43.280Z,38.97
2018-12-19T23:15:10.886Z,36.77
2018-12-19T23:17:39.395Z,36.53
2018-12-19T23:20:09.174Z,34.57
2018-12-19T23:22:36.722Z,40.43
2018-12-19T23:25:05.130Z,42.00
2018-12-19T23:27:32.866Z,40.67
2018-12-19T23:30:00.367Z,34.47
2018-12-19T23:32:28.723Z,36.20
2018-12-19T23:34:56.304Z,38.20
2018-12-19T23:37:23.846Z,39.17
2018-12-19T23:39:51.411Z,38.13
2018-12-19T23:42:19.062Z,34.50
2018-12-19T23:44:47.132Z,41.27
2018-12-19T23:47:14.898Z,37.77
2018-12-19T23:49:42.951Z,38.60
2018-12-19T23:52:10.498Z,35.10
2018-12-19T23:54:38.375Z,37.53
2018-12-19T23:57:06.095Z,39.90
2018-12-19T23:59:33.691Z,37.13
